Time;durP1;ratioP1;P1;durP2;ratioP2;P2;SDS_P1;SDS_P2;PMS_P1;PMS_P2;Temp;Humidity;BMP_temperature;BMP_pressure;BME280_temperature;BME280_humidity;BME280_pressure;Samples;Min_cycle;Max_cycle;Signal;HPM_P1;HPM_P2
2023/04/15 00:02:14;;;;;;;17.63;9.47;;;;;;;8.90;87.31;93886.53;4964866;28;20308;-84
2023/04/15 00:04:41;;;;;;;21.23;10.20;;;;;;;8.81;87.67;93885.28;4969506;28;20686;-84
2023/04/15 00:07:08;;;;;;;17.13;9.27;;;;;;;8.67;86.06;93883.94;4971454;28;20615;-84
2023/04/15 00:09:35;;;;;;;18.67;9.60;;;;;;;8.65;86.09;93879.00;4971567;28;20213;-84
2023/04/15 00:12:04;;;;;;;20.57;10.10;;;;;;;8.69;87.20;93880.13;4972088;28;21202;-84
2023/04/15 00:14:30;;;;;;;18.53;9.80;;;;;;;8.78;86.80;93883.94;4970432;28;20211;-81
2023/04/15 00:16:57;;;;;;;16.97;9.80;;;;;;;8.87;86.02;93867.06;4971579;28;20222;-83
2023/04/15 00:19:30;;;;;;;16.47;9.93;;;;;;;8.85;86.35;93858.72;4970551;28;20584;-86
2023/04/15 00:21:57;;;;;;;16.07;10.30;;;;;;;8.98;87.24;93870.63;4971350;28;20197;-83
2023/04/15 00:24:24;;;;;;;18.07;10.60;;;;;;;8.95;88.31;93874.47;4970406;28;20193;-82
2023/04/15 00:26:51;;;;;;;17.10;10.17;;;;;;;8.94;90.30;93879.91;4971596;28;20217;-83
2023/04/15 00:29:19;;;;;;;16.27;9.60;;;;;;;8.96;90.08;93883.03;4972664;28;20201;-83
2023/04/15 00:34:30;;;;;;;14.93;9.23;;;;;;;9.05;90.84;93897.22;4972415;28;20189;-83
2023/04/15 00:36:57;;;;;;;17.93;9.80;;;;;;;9.09;90.53;93895.78;4972349;28;20192;-83
2023/04/15 00:39:24;;;;;;;15.73;9.87;;;;;;;9.13;91.50;93889.91;4972648;28;20224;-83
2023/04/15 00:41:50;;;;;;;17.30;9.90;;;;;;;9.17;92.00;93882.47;4972700;28;20204;-83
2023/04/15 00:44:19;;;;;;;13.30;8.53;;;;;;;9.21;92.78;93878.38;4972914;28;20741;-82
2023/04/15 00:46:46;;;;;;;16.63;8.73;;;;;;;9.23;92.78;93876.38;4972359;28;20279;-83
2023/04/15 00:49:13;;;;;;;14.17;8.07;;;;;;;9.25;93.47;93876.91;4972880;28;20196;-83
2023/04/15 00:51:40;;;;;;;15.03;8.10;;;;;;;9.25;95.85;93863.16;4972464;28;20266;-83
2023/04/15 00:54:07;;;;;;;15.90;8.00;;;;;;;9.33;96.01;93873.19;4972292;28;20197;-83
2023/04/15 00:56:37;;;;;;;13.17;7.90;;;;;;;9.28;95.47;93868.69;4972241;28;20291;-83
2023/04/15 00:59:05;;;;;;;13.67;7.97;;;;;;;9.25;96.65;93879.50;4971989;28;20213;-79
2023/04/15 01:01:35;;;;;;;14.03;7.93;;;;;;;9.14;97.74;93882.91;4971411;28;20237;-79
2023/04/15 01:04:03;;;;;;;15.73;8.13;;;;;;;9.17;99.06;93900.59;4969681;28;20212;-79
2023/04/15 01:06:31;;;;;;;23.97;8.47;;;;;;;9.14;99.95;93898.47;4970150;28;20408;-79
2023/04/15 01:08:58;;;;;;;16.60;8.67;;;;;;;9.15;100.00;93897.44;4971713;28;20201;-79
2023/04/15 01:11:26;;;;;;;20.27;8.77;;;;;;;9.13;100.00;93895.09;4967941;28;20206;-79
2023/04/15 01:13:54;;;;;;;16.30;8.87;;;;;;;9.05;100.00;93879.88;4966461;28;20189;-80
2023/04/15 01:16:22;;;;;;;14.57;8.97;;;;;;;9.10;100.00;93880.00;4969857;28;20189;-81
2023/04/15 01:18:50;;;;;;;14.00;8.13;;;;;;;9.07;100.00;93871.88;4971086;28;20212;-80
2023/04/15 01:21:18;;;;;;;12.73;8.33;;;;;;;9.16;100.00;93874.91;4970705;28;20229;-80
2023/04/15 01:23:48;;;;;;;14.80;7.57;;;;;;;8.99;100.00;93880.78;4971432;28;20208;-79
2023/04/15 01:26:16;;;;;;;15.97;7.90;;;;;;;8.92;100.00;93876.72;4964770;28;20405;-84
2023/04/15 01:28:43;;;;;;;15.93;8.53;;;;;;;8.92;100.00;93887.88;4968015;28;20720;-82
2023/04/15 01:31:12;;;;;;;17.13;8.87;;;;;;;8.97;100.00;93888.00;4968285;28;20204;-82
2023/04/15 01:33:41;;;;;;;18.17;8.63;;;;;;;8.83;100.00;93875.53;4971390;28;20572;-83
2023/04/15 01:36:08;;;;;;;15.20;9.10;;;;;;;8.78;100.00;93873.59;4971908;28;20247;-82
2023/04/15 01:38:36;;;;;;;15.10;8.93;;;;;;;8.67;100.00;93865.81;4969750;28;20268;-82
2023/04/15 01:41:03;;;;;;;18.23;9.23;;;;;;;8.79;100.00;93882.94;4969267;28;20746;-82
2023/04/15 01:43:31;;;;;;;14.63;8.77;;;;;;;8.82;100.00;93881.69;4968045;28;20639;-82
2023/04/15 01:45:58;;;;;;;15.27;9.30;;;;;;;8.87;100.00;93884.41;4969699;28;20200;-82
2023/04/15 01:48:26;;;;;;;16.67;9.27;;;;;;;8.77;100.00;93879.81;4967031;28;20733;-82
2023/04/15 01:50:56;;;;;;;16.30;9.23;;;;;;;8.89;100.00;93884.94;4967005;28;20196;-82
2023/04/15 01:53:22;;;;;;;13.43;9.03;;;;;;;8.82;100.00;93874.72;4971250;28;20239;-83
2023/04/15 01:55:50;;;;;;;13.77;8.47;;;;;;;8.95;100.00;93889.22;4968729;28;20311;-83
2023/04/15 01:58:17;;;;;;;17.30;9.47;;;;;;;8.94;100.00;93885.88;4969982;28;20247;-83
2023/04/15 02:00:45;;;;;;;15.93;9.37;;;;;;;8.94;100.00;93898.03;4970722;28;20212;-83
2023/04/15 02:03:12;;;;;;;16.50;9.83;;;;;;;8.89;100.00;93897.91;4968331;28;20204;-84
2023/04/15 02:05:39;;;;;;;13.90;9.00;;;;;;;8.74;100.00;93898.38;4965303;28;20201;-83
2023/04/15 02:08:05;;;;;;;14.90;8.63;;;;;;;8.72;100.00;93904.78;4970407;28;20228;-84
2023/04/15 02:10:32;;;;;;;18.87;8.83;;;;;;;8.64;100.00;93882.59;4967341;28;20201;-84
2023/04/15 02:13:00;;;;;;;15.10;9.10;;;;;;;8.76;100.00;93895.56;4970637;28;20200;-83
2023/04/15 02:15:26;;;;;;;13.83;8.40;;;;;;;8.71;100.00;93900.63;4966451;28;20594;-84
2023/04/15 02:17:54;;;;;;;13.93;9.03;;;;;;;8.65;100.00;93870.44;4968147;28;20550;-84
2023/04/15 02:20:22;;;;;;;16.33;9.77;;;;;;;8.75;100.00;93899.94;4970147;28;20213;-83
2023/04/15 02:22:49;;;;;;;15.03;9.40;;;;;;;8.68;100.00;93886.31;4968881;28;20647;-83
2023/04/15 02:25:16;;;;;;;18.73;9.90;;;;;;;8.57;100.00;93895.66;4970412;28;20587;-83
2023/04/15 02:27:44;;;;;;;17.23;9.43;;;;;;;8.52;100.00;93886.97;4967971;28;20365;-83
2023/04/15 02:30:11;;;;;;;14.93;9.10;;;;;;;8.48;100.00;93886.63;4969649;28;20295;-84
2023/04/15 02:32:38;;;;;;;16.67;9.60;;;;;;;8.47;100.00;93876.50;4973775;28;20208;-85
2023/04/15 02:35:08;;;;;;;14.40;9.03;;;;;;;8.51;100.00;93888.78;4973327;28;20209;-83
2023/04/15 02:37:40;;;;;;;13.80;9.10;;;;;;;8.40;100.00;93886.97;4974402;28;20213;-83
2023/04/15 02:40:09;;;;;;;15.77;9.03;;;;;;;8.49;100.00;93892.59;4973540;28;20208;-84
2023/04/15 02:42:35;;;;;;;18.80;9.60;;;;;;;8.46;100.00;93900.81;4970205;28;20686;-84
2023/04/15 02:45:02;;;;;;;16.03;9.93;;;;;;;8.32;100.00;93886.50;4974019;28;20208;-84
2023/04/15 02:47:29;;;;;;;18.57;9.80;;;;;;;8.23;100.00;93887.78;4967149;28;20295;-83
2023/04/15 02:49:57;;;;;;;14.57;9.23;;;;;;;8.24;100.00;93905.72;4974313;28;20201;-83
2023/04/15 02:52:26;;;;;;;15.00;8.70;;;;;;;8.21;100.00;93905.34;4973853;28;20197;-83
2023/04/15 02:54:56;;;;;;;17.40;9.30;;;;;;;8.17;100.00;93907.59;4972650;28;20197;-83
2023/04/15 02:57:23;;;;;;;14.13;9.37;;;;;;;8.10;100.00;93882.81;4972894;28;20199;-83
2023/04/15 02:59:50;;;;;;;13.63;8.47;;;;;;;8.17;99.17;93906.78;4972875;28;20615;-82
2023/04/15 03:02:17;;;;;;;16.47;9.03;;;;;;;8.08;97.22;93905.56;4973466;28;20235;-84
2023/04/15 03:04:44;;;;;;;14.80;8.97;;;;;;;7.95;96.91;93904.72;4974148;28;20209;-84
2023/04/15 03:07:11;;;;;;;14.80;8.90;;;;;;;7.91;98.50;93907.97;4972533;28;20240;-81
2023/04/15 03:09:40;;;;;;;16.10;9.33;;;;;;;7.83;99.23;93900.50;4971257;28;20827;-83
2023/04/15 03:12:07;;;;;;;14.80;8.50;;;;;;;7.72;99.62;93893.50;4973860;28;20329;-81
2023/04/15 03:14:33;;;;;;;16.17;8.90;;;;;;;7.81;99.07;93924.03;4971940;28;20201;-82
2023/04/15 03:17:00;;;;;;;14.40;8.90;;;;;;;7.72;98.67;93922.75;4973246;28;20212;-84
2023/04/15 03:19:27;;;;;;;14.67;8.53;;;;;;;7.66;98.90;93925.41;4970353;28;20204;-83
2023/04/15 03:21:54;;;;;;;14.57;9.60;;;;;;;7.70;99.19;93926.56;4966537;28;20263;-81
2023/04/15 03:24:21;;;;;;;13.80;8.77;;;;;;;7.72;98.65;93927.13;4973898;28;20679;-81
2023/04/15 03:26:49;;;;;;;15.43;8.90;;;;;;;7.63;99.60;93924.03;4972120;28;20287;-80
2023/04/15 03:29:16;;;;;;;16.93;9.20;;;;;;;7.63;100.00;93929.22;4972559;28;20281;-81
2023/04/15 03:31:42;;;;;;;15.17;8.20;;;;;;;7.65;99.11;93932.38;4970183;28;20250;-82
2023/04/15 03:34:09;;;;;;;16.87;8.50;;;;;;;7.59;98.32;93937.63;4970189;28;20205;-82
2023/04/15 03:36:37;;;;;;;12.20;8.37;;;;;;;7.55;99.05;93932.09;4973618;28;20211;-83
2023/04/15 03:39:04;;;;;;;14.13;8.23;;;;;;;7.44;99.97;93932.84;4972705;28;20215;-83
2023/04/15 03:41:31;;;;;;;16.50;8.60;;;;;;;7.52;100.00;93957.59;4973177;28;20259;-83
2023/04/15 03:43:59;;;;;;;13.33;8.83;;;;;;;7.47;100.00;93953.06;4973153;28;20231;-83
2023/04/15 03:46:26;;;;;;;20.20;11.57;;;;;;;7.46;100.00;93958.44;4972501;28;20204;-83
2023/04/15 03:48:53;;;;;;;17.87;10.63;;;;;;;7.48;100.00;93962.41;4967502;28;20245;-81
2023/04/15 03:51:20;;;;;;;16.80;8.40;;;;;;;7.58;100.00;93977.41;4967446;28;20208;-81
2023/04/15 03:53:47;;;;;;;15.47;8.10;;;;;;;7.48;99.70;93975.31;4964892;28;20676;-82
2023/04/15 03:56:14;;;;;;;11.60;8.00;;;;;;;7.51;99.69;93972.31;4966000;28;20194;-82
2023/04/15 03:58:40;;;;;;;15.80;8.17;;;;;;;7.50;98.61;93967.38;4964704;28;20193;-84
2023/04/15 04:01:09;;;;;;;13.17;8.30;;;;;;;7.46;99.03;93968.78;4967282;28;20268;-85
2023/04/15 04:03:36;;;;;;;13.63;7.87;;;;;;;7.33;98.82;93964.56;4969981;28;20955;-85
2023/04/15 04:06:03;;;;;;;11.37;7.70;;;;;;;7.31;99.38;93966.56;4969418;28;20232;-82
2023/04/15 04:08:30;;;;;;;14.17;8.90;;;;;;;7.26;99.11;93977.53;4963636;28;20726;-81
2023/04/15 04:10:57;;;;;;;21.27;8.37;;;;;;;7.13;98.71;93971.72;4970971;28;20197;-81
2023/04/15 04:13:38;;;;;;;14.03;8.33;;;;;;;7.01;99.87;93970.84;4969596;28;20209;-82
2023/04/15 04:16:05;;;;;;;16.73;8.93;;;;;;;7.02;99.73;93975.78;4967639;28;20201;-80
2023/04/15 04:18:34;;;;;;;15.93;8.80;;;;;;;6.94;100.00;93981.22;4965107;28;20205;-79
2023/04/15 04:21:01;;;;;;;16.00;9.20;;;;;;;6.89;100.00;93975.91;4962676;28;20217;-77
2023/04/15 04:23:28;;;;;;;14.57;9.33;;;;;;;6.83;100.00;93971.59;4962276;28;20201;-78
2023/04/15 04:25:55;;;;;;;22.73;10.10;;;;;;;6.83;100.00;93974.97;4958018;28;20212;-77
2023/04/15 04:28:22;;;;;;;16.87;9.93;;;;;;;6.87;100.00;93982.28;4932669;28;20268;-78
2023/04/15 04:30:49;;;;;;;22.90;10.73;;;;;;;6.86;100.00;93973.75;4952528;28;20204;-78
2023/04/15 04:33:15;;;;;;;19.57;11.47;;;;;;;6.94;100.00;93985.59;4967686;28;20201;-78
2023/04/15 04:35:44;;;;;;;20.00;11.10;;;;;;;6.97;100.00;93974.84;4968040;28;20209;-79
2023/04/15 04:38:10;;;;;;;23.60;12.90;;;;;;;7.00;100.00;93977.00;4957853;28;20605;-78
2023/04/15 04:40:37;;;;;;;38.50;22.63;;;;;;;7.06;100.00;93979.53;4947066;28;20197;-82
2023/04/15 04:43:04;;;;;;;46.00;30.17;;;;;;;7.14;100.00;93978.44;4962934;28;20204;-83
2023/04/15 04:45:31;;;;;;;43.07;30.33;;;;;;;7.22;100.00;93980.75;4942987;28;20684;-82
2023/04/15 04:47:57;;;;;;;51.80;34.50;;;;;;;7.26;100.00;93993.06;4958735;28;20755;-83
2023/04/15 04:50:24;;;;;;;52.07;34.83;;;;;;;7.30;100.00;93988.25;4962693;28;20558;-83
2023/04/15 04:52:52;;;;;;;49.23;33.40;;;;;;;7.35;100.00;93991.78;4951652;28;20201;-83
2023/04/15 04:55:20;;;;;;;38.40;24.30;;;;;;;7.31;100.00;93987.22;4965153;28;20636;-82
2023/04/15 04:57:47;;;;;;;22.07;13.10;;;;;;;7.32;100.00;93994.00;4971703;28;20205;-83
2023/04/15 05:00:14;;;;;;;13.30;9.00;;;;;;;7.30;100.00;93996.00;4968842;28;20360;-84
2023/04/15 05:02:42;;;;;;;16.17;8.70;;;;;;;7.46;98.76;94005.78;4968719;28;20593;-82
2023/04/15 05:05:10;;;;;;;15.90;8.50;;;;;;;7.48;98.44;94008.13;4964751;28;20205;-83
2023/04/15 05:07:38;;;;;;;12.43;7.87;;;;;;;7.44;98.96;94005.97;4963553;28;20255;-82
2023/04/15 05:10:08;;;;;;;13.27;8.43;;;;;;;7.49;98.73;94015.69;4968728;28;20329;-79
2023/04/15 05:12:36;;;;;;;17.83;7.90;;;;;;;7.50;97.83;94016.47;4969775;28;20311;-80
2023/04/15 05:15:03;;;;;;;13.80;7.50;;;;;;;7.55;97.93;94021.78;4968068;28;20221;-81
2023/04/15 05:17:32;;;;;;;13.90;7.70;;;;;;;7.50;98.38;94030.19;4970641;28;20217;-79
2023/04/15 05:19:58;;;;;;;14.00;7.60;;;;;;;7.57;97.30;94030.91;4971051;28;20315;-81
2023/04/15 05:22:25;;;;;;;13.63;7.40;;;;;;;7.63;96.20;94030.06;4970731;28;20197;-79
2023/04/15 05:24:52;;;;;;;10.50;7.17;;;;;;;7.60;94.86;94038.22;4968431;28;20197;-79
2023/04/15 05:27:21;;;;;;;12.87;7.00;;;;;;;7.62;94.88;94048.38;4968782;28;20204;-80
2023/04/15 05:29:48;;;;;;;14.40;7.07;;;;;;;7.63;95.13;94030.06;4970843;28;20224;-79
2023/04/15 05:32:15;;;;;;;12.13;7.00;;;;;;;7.64;95.07;94017.91;4971153;28;20323;-81
2023/04/15 05:34:41;;;;;;;11.63;7.03;;;;;;;7.69;95.34;94023.22;4966994;28;20204;-79
2023/04/15 05:37:08;;;;;;;13.23;7.40;;;;;;;7.69;94.50;94021.44;4969921;28;20604;-83
2023/04/15 05:39:35;;;;;;;14.37;7.77;;;;;;;7.65;95.21;94024.66;4968740;28;20295;-84
2023/04/15 05:42:02;;;;;;;14.67;8.33;;;;;;;7.74;95.62;94021.56;4970627;28;20213;-83
2023/04/15 05:44:30;;;;;;;15.50;8.10;;;;;;;7.79;95.74;94023.53;4970995;28;20236;-82
2023/04/15 05:46:57;;;;;;;13.73;7.53;;;;;;;7.87;94.83;94020.66;4970974;28;20205;-84
2023/04/15 05:49:24;;;;;;;14.53;7.93;;;;;;;7.91;93.69;94019.97;4970695;28;20654;-81
2023/04/15 05:51:51;;;;;;;10.93;6.50;;;;;;;8.05;92.84;94038.75;4970035;28;20197;-83
2023/04/15 05:54:18;;;;;;;10.90;7.03;;;;;;;8.10;92.51;94030.31;4970860;28;20731;-84
2023/04/15 05:56:45;;;;;;;15.23;7.07;;;;;;;8.17;92.21;94033.59;4971393;28;20213;-84
2023/04/15 05:59:11;;;;;;;12.87;7.53;;;;;;;8.26;92.06;94040.06;4967511;28;20220;-84
2023/04/15 06:01:40;;;;;;;14.13;6.90;;;;;;;8.32;91.20;94041.81;4970736;28;20259;-84
2023/04/15 06:04:08;;;;;;;14.50;7.33;;;;;;;8.37;92.20;94039.34;4971067;28;20217;-84
2023/04/15 06:06:35;;;;;;;13.20;7.40;;;;;;;8.28;91.80;94036.28;4970549;28;20209;-83
2023/04/15 06:09:02;;;;;;;13.30;7.90;;;;;;;8.29;91.69;94047.41;4970902;28;20205;-83
2023/04/15 06:11:28;;;;;;;11.93;7.87;;;;;;;8.37;91.36;94034.16;4970894;28;20201;-85
2023/04/15 06:13:56;;;;;;;14.50;7.90;;;;;;;8.40;92.39;94034.53;4971018;28;20283;-84
2023/04/15 06:16:23;;;;;;;13.50;7.53;;;;;;;8.45;92.68;94036.47;4970311;28;20200;-85
2023/04/15 06:18:51;;;;;;;11.33;7.50;;;;;;;8.43;92.45;94041.84;4968236;28;20626;-85
2023/04/15 06:21:17;;;;;;;12.50;7.40;;;;;;;8.45;93.09;94046.84;4967280;28;20280;-83
2023/04/15 06:23:45;;;;;;;13.90;8.10;;;;;;;8.52;93.21;94044.94;4966906;28;20215;-83
2023/04/15 06:26:11;;;;;;;18.60;8.10;;;;;;;8.63;93.38;94048.59;4970617;28;20196;-84
2023/04/15 06:28:38;;;;;;;13.47;7.73;;;;;;;8.78;92.44;94062.69;4970126;28;20217;-84
2023/04/15 06:31:05;;;;;;;15.70;8.70;;;;;;;8.86;91.92;94062.38;4970220;28;20208;-80
2023/04/15 06:33:32;;;;;;;14.73;8.30;;;;;;;9.06;90.37;94072.47;4970632;28;20212;-81
2023/04/15 06:36:01;;;;;;;14.10;8.60;;;;;;;9.20;89.48;94073.03;4970144;28;20212;-82
2023/04/15 06:38:28;;;;;;;15.90;8.87;;;;;;;9.25;89.84;94079.13;4970970;28;20227;-82
2023/04/15 06:40:54;;;;;;;16.67;9.73;;;;;;;9.43;88.22;94086.81;4971442;28;20209;-79
2023/04/15 06:43:21;;;;;;;21.60;10.10;;;;;;;9.47;87.32;94067.19;4970867;28;20514;-82
2023/04/15 06:45:48;;;;;;;18.13;9.60;;;;;;;9.61;86.70;94081.50;4969996;28;20200;-78
2023/04/15 06:48:15;;;;;;;15.67;8.77;;;;;;;9.65;86.79;94081.84;4969183;28;20204;-78
2023/04/15 06:50:42;;;;;;;17.03;8.37;;;;;;;9.77;83.88;94092.22;4966471;28;20224;-79
2023/04/15 06:53:11;;;;;;;18.00;8.50;;;;;;;9.76;84.07;94088.84;4969614;28;20212;-80
2023/04/15 06:55:37;;;;;;;19.57;9.10;;;;;;;9.88;84.73;94088.84;4963201;28;20197;-80
2023/04/15 06:58:04;;;;;;;18.17;9.27;;;;;;;9.95;83.69;94092.13;4969755;28;20236;-83
2023/04/15 07:00:32;;;;;;;20.90;9.50;;;;;;;10.04;82.59;94083.72;4970271;28;20583;-81
2023/04/15 07:03:01;;;;;;;17.93;9.17;;;;;;;10.19;82.83;94086.69;4970034;28;20288;-82
2023/04/15 07:05:28;;;;;;;14.23;8.60;;;;;;;10.25;82.18;94082.38;4970217;28;20519;-82
2023/04/15 07:07:55;;;;;;;16.23;8.27;;;;;;;10.36;79.76;94067.78;4970330;28;20211;-84
2023/04/15 07:10:24;;;;;;;16.43;8.80;;;;;;;10.46;80.78;94081.75;4969805;28;20222;-81
2023/04/15 07:12:51;;;;;;;19.27;8.90;;;;;;;10.52;80.39;94087.84;4971242;28;20204;-81
2023/04/15 07:15:18;;;;;;;17.07;8.47;;;;;;;10.66;79.02;94078.75;4973609;28;20197;-80
2023/04/15 07:17:45;;;;;;;20.90;8.40;;;;;;;10.70;78.73;94074.66;4973755;28;20357;-81
2023/04/15 07:20:12;;;;;;;12.13;6.87;;;;;;;10.82;75.90;94093.59;4972696;28;20310;-80
2023/04/15 07:22:40;;;;;;;11.90;7.67;;;;;;;10.88;75.45;94090.06;4973790;28;20213;-79
2023/04/15 07:25:08;;;;;;;13.20;6.80;;;;;;;10.90;74.55;94079.44;4973082;28;20208;-81
2023/04/15 07:27:36;;;;;;;12.47;6.70;;;;;;;10.88;75.03;94066.66;4971310;28;20200;-81
2023/04/15 07:30:03;;;;;;;10.77;6.70;;;;;;;11.08;75.29;94082.59;4972408;28;20547;-81
2023/04/15 07:32:30;;;;;;;10.93;6.57;;;;;;;11.15;75.23;94085.84;4969800;28;20197;-80
2023/04/15 07:34:57;;;;;;;14.10;6.57;;;;;;;11.31;72.65;94095.47;4973200;28;20637;-80
2023/04/15 07:37:24;;;;;;;15.00;6.97;;;;;;;11.39;71.38;94091.69;4971540;28;20189;-80
2023/04/15 07:39:51;;;;;;;10.53;6.33;;;;;;;11.45;71.23;94082.16;4968643;28;20344;-80
2023/04/15 07:42:18;;;;;;;15.20;6.07;;;;;;;11.58;71.99;94090.44;4969124;28;20670;-81
2023/04/15 07:44:47;;;;;;;8.93;6.23;;;;;;;11.74;71.05;94088.88;4971519;28;20207;-80
2023/04/15 07:47:13;;;;;;;10.17;5.47;;;;;;;11.82;69.99;94085.88;4969309;28;20216;-81
2023/04/15 07:49:43;;;;;;;5.63;3.20;;;;;;;11.95;66.09;94088.13;4973099;28;20211;-80
2023/04/15 07:52:10;;;;;;;8.93;4.77;;;;;;;12.14;65.05;94104.28;4973174;28;20205;-85
2023/04/15 07:54:37;;;;;;;10.23;4.03;;;;;;;12.22;64.95;94093.44;4974259;28;20220;-84
2023/04/15 07:57:04;;;;;;;8.57;3.43;;;;;;;12.36;63.72;94110.28;4975270;28;20212;-84
2023/04/15 07:59:32;;;;;;;8.00;2.47;;;;;;;12.46;60.98;94107.81;4974124;28;20287;-84
2023/04/15 08:02:00;;;;;;;3.83;2.43;;;;;;;12.51;60.19;94108.66;4974123;28;20315;-83
2023/04/15 08:04:29;;;;;;;5.67;1.80;;;;;;;12.65;57.63;94110.88;4975237;28;20205;-84
2023/04/15 08:06:56;;;;;;;6.70;2.30;;;;;;;12.71;58.20;94104.69;4974642;28;20228;-84
2023/04/15 08:09:23;;;;;;;9.87;3.30;;;;;;;12.80;58.44;94105.84;4974610;28;20279;-84
2023/04/15 08:11:50;;;;;;;9.53;4.67;;;;;;;12.94;61.09;94107.03;4974489;28;20272;-84
2023/04/15 08:14:17;;;;;;;7.03;4.10;;;;;;;12.88;61.47;94100.97;4974108;28;20196;-84
2023/04/15 08:16:44;;;;;;;7.77;4.40;;;;;;;12.96;62.53;94105.75;4974643;28;20676;-84
2023/04/15 08:19:12;;;;;;;7.70;3.60;;;;;;;13.11;63.13;94117.41;4955519;29;20221;-84
2023/04/15 08:21:39;;;;;;;8.23;3.60;;;;;;;13.26;59.76;94101.88;4970477;28;20623;-84
2023/04/15 08:24:07;;;;;;;7.07;3.53;;;;;;;13.37;59.11;94112.16;4973977;28;20216;-84
2023/04/15 08:26:34;;;;;;;13.13;3.47;;;;;;;13.51;56.24;94115.16;4974037;28;20212;-84
2023/04/15 08:29:01;;;;;;;7.43;3.10;;;;;;;13.57;56.06;94107.13;4973685;28;20201;-85
2023/04/15 08:31:29;;;;;;;6.50;2.57;;;;;;;13.67;56.08;94108.22;4973640;28;20201;-84
2023/04/15 08:33:57;;;;;;;7.03;2.80;;;;;;;13.72;53.91;94108.25;4973081;28;20236;-83
2023/04/15 08:36:25;;;;;;;8.57;2.77;;;;;;;13.72;54.07;94126.53;4975491;28;20212;-84
2023/04/15 08:38:52;;;;;;;5.53;2.90;;;;;;;13.80;53.01;94116.41;4973828;28;20221;-85
2023/04/15 08:41:22;;;;;;;6.87;2.50;;;;;;;13.70;53.56;94105.13;4974610;28;20220;-84
2023/04/15 08:43:54;;;;;;;4.90;2.67;;;;;;;13.69;52.90;94106.94;4974519;28;20232;-83
2023/04/15 08:46:21;;;;;;;7.53;2.57;;;;;;;13.74;53.00;94106.22;4975476;28;20255;-85
2023/04/15 08:48:49;;;;;;;6.53;3.07;;;;;;;13.77;53.25;94109.09;4974066;28;20667;-84
2023/04/15 08:51:16;;;;;;;5.90;2.40;;;;;;;13.81;52.88;94104.16;4968816;28;20704;-84
2023/04/15 08:53:46;;;;;;;4.23;2.17;;;;;;;13.68;52.38;94083.69;4972014;28;20201;-84
2023/04/15 08:56:14;;;;;;;3.80;2.07;;;;;;;13.83;49.94;94107.28;4971526;28;20695;-84
2023/04/15 08:58:41;;;;;;;3.30;1.57;;;;;;;13.85;47.95;94100.00;4969377;28;20221;-84
2023/04/15 09:01:08;;;;;;;4.60;1.80;;;;;;;13.85;48.56;94105.25;4971599;28;20233;-85
2023/04/15 09:03:36;;;;;;;4.57;2.30;;;;;;;13.88;47.95;94086.44;4970201;28;20215;-84
2023/04/15 09:06:05;;;;;;;2.83;1.70;;;;;;;14.00;45.50;94092.25;4971908;28;20287;-84
2023/04/15 09:08:33;;;;;;;4.83;1.50;;;;;;;14.15;45.14;94087.91;4972051;28;20209;-84
2023/04/15 09:11:01;;;;;;;4.87;2.00;;;;;;;14.32;46.60;94094.78;4972102;28;20837;-84
2023/04/15 09:13:28;;;;;;;2.30;1.93;;;;;;;14.40;45.93;94087.25;4968793;28;20205;-85
2023/04/15 09:15:56;;;;;;;4.23;1.77;;;;;;;14.53;46.46;94075.56;4971541;28;20209;-83
2023/04/15 09:18:29;;;;;;;3.73;1.50;;;;;;;14.50;46.90;94052.53;4971923;28;20283;-85
2023/04/15 09:20:56;;;;;;;3.47;1.70;;;;;;;14.78;46.63;94075.63;4970138;28;20198;-84
2023/04/15 09:23:23;;;;;;;3.27;1.47;;;;;;;14.97;46.19;94081.19;4971178;28;20213;-84
2023/04/15 09:25:50;;;;;;;2.93;1.50;;;;;;;15.18;43.62;94074.94;4971701;28;20214;-84
2023/04/15 09:28:24;;;;;;;1.40;1.10;;;;;;;15.28;37.06;94078.34;4971882;28;20233;-84
2023/04/15 09:30:55;;;;;;;2.17;1.20;;;;;;;15.39;37.45;94092.22;4971355;28;20279;-83
2023/04/15 09:33:22;;;;;;;1.60;1.00;;;;;;;15.53;36.08;94097.75;4971655;28;20213;-82
2023/04/15 09:35:57;;;;;;;4.50;1.77;;;;;;;15.77;38.64;94093.56;4971283;28;20209;-83
2023/04/15 09:38:25;;;;;;;2.37;1.37;;;;;;;15.99;36.00;94083.56;4971885;28;20216;-83
2023/04/15 09:40:51;;;;;;;1.87;1.13;;;;;;;16.07;34.64;94095.38;4971197;28;20216;-84
2023/04/15 09:43:20;;;;;;;2.63;1.30;;;;;;;16.17;36.06;94093.50;4970036;28;20228;-83
2023/04/15 09:45:51;;;;;;;2.53;1.40;;;;;;;16.30;38.62;94103.47;4971365;28;20303;-85
2023/04/15 09:48:20;;;;;;;1.27;1.10;;;;;;;16.31;38.26;94089.28;4971703;28;20203;-85
2023/04/15 09:50:49;;;;;;;2.77;1.57;;;;;;;16.18;37.53;94074.13;4971054;28;20788;-84
2023/04/15 09:53:18;;;;;;;4.50;1.40;;;;;;;16.38;36.48;94087.16;4971295;28;20212;-85
2023/04/15 09:55:46;;;;;;;6.20;1.50;;;;;;;16.43;34.56;94107.34;4965324;28;20200;-84
2023/04/15 09:58:22;;;;;;;3.50;1.50;;;;;;;16.46;36.58;94085.81;4967094;28;20230;-84
2023/04/15 10:00:50;;;;;;;3.00;1.40;;;;;;;16.48;35.71;94081.06;4971102;28;20276;-85
2023/04/15 10:03:21;;;;;;;2.80;1.20;;;;;;;16.33;33.41;94087.16;4971472;28;20642;-81
2023/04/15 10:05:49;;;;;;;2.00;1.30;;;;;;;16.43;31.64;94094.22;4970954;28;20748;-81
2023/04/15 10:08:18;;;;;;;4.67;1.30;;;;;;;16.36;31.25;94119.97;4970577;28;20644;-80
2023/04/15 10:10:45;;;;;;;1.87;1.20;;;;;;;16.38;32.34;94109.97;4969216;28;20204;-81
2023/04/15 10:13:13;;;;;;;4.10;1.50;;;;;;;16.45;32.76;94099.97;4971169;28;20236;-79
2023/04/15 10:15:44;;;;;;;2.73;1.30;;;;;;;16.53;33.01;94090.78;4970567;28;20207;-80
2023/04/15 10:18:14;;;;;;;2.87;1.50;;;;;;;16.57;34.06;94076.09;4966584;28;20256;-81
2023/04/15 10:20:42;;;;;;;2.37;1.50;;;;;;;16.66;34.06;94080.53;4970681;28;20213;-80
2023/04/15 10:23:10;;;;;;;2.50;1.30;;;;;;;16.77;33.66;94070.75;4970397;28;20260;-82
2023/04/15 10:25:38;;;;;;;3.47;1.23;;;;;;;16.92;33.49;94081.19;4969975;28;20205;-81
2023/04/15 10:28:06;;;;;;;2.90;1.33;;;;;;;17.09;33.96;94054.56;4970201;28;20220;-81
2023/04/15 10:30:33;;;;;;;2.67;1.30;;;;;;;17.26;33.37;94065.47;4970505;28;20251;-82
2023/04/15 10:33:03;;;;;;;3.73;1.87;;;;;;;17.50;33.27;94077.66;4970367;28;20231;-82
2023/04/15 10:35:31;;;;;;;4.27;1.50;;;;;;;17.55;30.94;94074.22;4970485;28;20209;-80
2023/04/15 10:37:59;;;;;;;6.77;1.57;;;;;;;17.56;32.84;94058.19;4970866;28;20670;-82
2023/04/15 10:40:30;;;;;;;4.43;1.50;;;;;;;17.49;33.79;94062.94;4970429;28;20722;-83
2023/04/15 10:42:58;;;;;;;4.27;1.50;;;;;;;17.45;34.46;94042.75;4970366;28;20671;-84
2023/04/15 10:45:27;;;;;;;7.60;1.40;;;;;;;17.72;33.80;94060.69;4970969;28;20196;-84
2023/04/15 10:47:58;;;;;;;5.30;1.67;;;;;;;17.81;34.61;94065.06;4971437;28;20252;-85
2023/04/15 10:50:31;;;;;;;3.60;1.50;;;;;;;17.89;34.65;94032.91;4974881;28;20227;-84
2023/04/15 10:52:59;;;;;;;2.67;1.40;;;;;;;18.05;34.24;94049.31;4974767;28;20201;-85
2023/04/15 10:55:27;;;;;;;4.30;1.80;;;;;;;18.13;33.88;94056.59;4974700;28;20255;-85
2023/04/15 10:57:55;;;;;;;4.68;1.98;;;;;;;18.23;34.89;94051.25;4974272;28;20208;-86
2023/04/15 11:00:26;;;;;;;3.25;1.70;;;;;;;18.31;33.49;94063.00;4974410;28;20232;-84
2023/04/15 11:02:55;;;;;;;4.70;1.58;;;;;;;18.33;33.74;94042.44;4974394;28;20264;-85
2023/04/15 11:05:43;;;;;;;2.90;1.75;;;;;;;18.45;34.26;94062.03;4974159;28;20263;-87
2023/04/15 11:08:12;;;;;;;3.70;1.57;;;;;;;18.28;33.31;94060.91;4968326;28;20205;-84
2023/04/15 11:10:54;;;;;;;1.90;1.45;;;;;;;18.33;32.63;94071.38;4971937;28;20210;-84
2023/04/15 11:13:28;;;;;;;3.25;1.63;;;;;;;18.23;34.71;94053.09;4969631;28;20647;-84
2023/04/15 11:16:00;;;;;;;2.30;2.00;;;;;;;18.31;34.30;94045.38;4970074;28;20208;-84
2023/04/15 11:18:30;;;;;;;3.58;1.75;;;;;;;18.52;33.60;94040.69;4971270;28;20220;-85
2023/04/15 11:20:59;;;;;;;4.55;1.70;;;;;;;18.51;34.25;94034.63;4971232;28;20782;-84
2023/04/15 11:23:35;;;;;;;4.68;1.83;;;;;;;18.75;34.27;94039.06;4971794;28;20205;-84
2023/04/15 11:26:08;;;;;;;4.13;1.60;;;;;;;18.86;34.32;94035.25;4969896;28;20582;-84
2023/04/15 11:28:35;;;;;;;2.90;1.70;;;;;;;18.84;33.55;94026.84;4969583;28;20272;-85
2023/04/15 11:31:09;;;;;;;4.40;1.58;;;;;;;19.01;32.04;94038.47;4971411;28;20245;-84
2023/04/15 11:33:36;;;;;;;3.42;1.60;;;;;;;18.83;31.62;94049.75;4971714;28;20204;-84
2023/04/15 11:36:04;;;;;;;5.57;1.85;;;;;;;18.71;31.38;94038.84;4971625;28;20369;-85